createdAt,value
2018-05-06T00:00:45.606Z,48.73
2018-05-06T00:03:14.525Z,32.43
2018-05-06T00:05:43.463Z,33.10
2018-05-06T00:08:12.385Z,30.70
2018-05-06T00:10:41.304Z,31.40
2018-05-06T00:13:10.235Z,29.30
2018-05-06T00:15:39.170Z,37.80
2018-05-06T00:18:08.092Z,25.17
2018-05-06T00:20:37.025Z,26.40
2018-05-06T00:23:05.976Z,28.60
2018-05-06T00:25:34.892Z,35.23
2018-05-06T00:28:03.810Z,30.60
2018-05-06T00:30:32.748Z,33.07
2018-05-06T00:33:01.672Z,33.43
2018-05-06T00:35:30.620Z,36.27
2018-05-06T00:37:59.548Z,35.53
2018-05-06T00:40:28.465Z,38.33
2018-05-06T00:42:57.389Z,34.73
2018-05-06T00:45:26.332Z,29.63
2018-05-06T00:47:55.324Z,31.70
2018-05-06T00:50:24.245Z,28.37
2018-05-06T00:52:53.193Z,29.47
2018-05-06T00:55:22.123Z,27.57
2018-05-06T00:57:51.068Z,33.13
2018-05-06T01:00:19.986Z,25.73
2018-05-06T01:02:48.916Z,31.67
2018-05-06T01:05:17.837Z,30.50
2018-05-06T01:07:46.756Z,33.03
2018-05-06T01:10:15.689Z,23.20
2018-05-06T01:12:44.605Z,31.83
2018-05-06T01:15:13.537Z,28.77
2018-05-06T01:17:42.453Z,32.40
2018-05-06T01:20:11.369Z,31.03
2018-05-06T01:22:40.313Z,26.83
2018-05-06T01:25:09.236Z,24.17
2018-05-06T01:27:38.169Z,26.13
2018-05-06T01:30:07.104Z,32.30
2018-05-06T01:32:36.057Z,26.50
2018-05-06T01:35:04.995Z,35.13
2018-05-06T01:37:33.921Z,28.70
2018-05-06T01:40:02.847Z,26.97
2018-05-06T01:42:31.784Z,25.57
2018-05-06T01:45:00.729Z,27.60
2018-05-06T01:47:29.648Z,35.33
2018-05-06T01:49:58.577Z,29.70
2018-05-06T01:52:27.509Z,29.73
2018-05-06T01:54:56.429Z,28.00
2018-05-06T01:57:25.352Z,27.07
2018-05-06T01:59:54.304Z,31.20
2018-05-06T02:02:23.232Z,34.23
2018-05-06T02:04:52.164Z,27.70
2018-05-06T02:07:21.089Z,28.93
2018-05-06T02:09:50.013Z,28.40
2018-05-06T02:12:18.964Z,28.60
2018-05-06T02:14:47.888Z,31.07
2018-05-06T02:17:16.800Z,27.07
2018-05-06T02:19:45.735Z,32.00
2018-05-06T02:22:14.664Z,23.10
2018-05-06T02:24:43.604Z,25.60
2018-05-06T02:27:12.533Z,30.10
2018-05-06T02:29:41.452Z,32.57
2018-05-06T02:32:10.405Z,26.40
2018-05-06T02:34:39.332Z,30.27
2018-05-06T02:37:08.263Z,39.83
2018-05-06T02:39:37.181Z,31.00
2018-05-06T02:42:06.109Z,29.10
2018-05-06T02:44:35.024Z,31.63
2018-05-06T02:47:03.948Z,27.07
2018-05-06T02:49:32.881Z,37.37
2018-05-06T02:52:01.894Z,33.53
2018-05-06T02:54:30.832Z,30.50
2018-05-06T02:56:59.788Z,28.03
2018-05-06T02:59:28.720Z,24.60
2018-05-06T03:01:57.652Z,29.00
2018-05-06T03:04:26.580Z,33.90
2018-05-06T03:06:55.513Z,31.53
2018-05-06T03:09:24.440Z,27.00
2018-05-06T03:11:54.259Z,29.47
2018-05-06T03:14:23.211Z,25.10
2018-05-06T03:16:52.137Z,28.90
2018-05-06T03:19:21.073Z,26.43
2018-05-06T03:21:49.997Z,29.43
2018-05-06T03:24:18.925Z,25.77
2018-05-06T03:26:47.880Z,30.13
2018-05-06T03:29:16.796Z,29.57
2018-05-06T03:31:45.788Z,26.40
2018-05-06T03:34:14.725Z,23.40
2018-05-06T03:36:43.653Z,35.47
2018-05-06T03:39:12.941Z,32.17
2018-05-06T03:41:41.884Z,28.80
2018-05-06T03:44:10.817Z,26.97
2018-05-06T03:46:39.764Z,28.23
2018-05-06T03:49:08.709Z,31.07
2018-05-06T03:51:37.676Z,27.17
2018-05-06T03:54:06.620Z,29.60
2018-05-06T03:56:50.416Z,31.73
2018-05-06T04:02:29.388Z,28.67
2018-05-06T04:04:58.324Z,27.03
2018-05-06T04:07:27.247Z,26.33
2018-05-06T04:09:56.256Z,29.10
2018-05-06T04:12:25.184Z,35.73
2018-05-06T04:14:54.125Z,26.67
2018-05-06T04:17:23.049Z,26.07
2018-05-06T04:19:52.024Z,31.17
2018-05-06T04:22:20.961Z,37.80
2018-05-06T04:24:49.893Z,27.63
2018-05-06T04:27:19.144Z,28.80
2018-05-06T04:29:48.080Z,27.40
2018-05-06T04:32:18.076Z,40.03
2018-05-06T04:34:47.033Z,27.23
2018-05-06T04:37:15.960Z,30.53
2018-05-06T04:39:44.894Z,34.20
2018-05-06T04:42:13.825Z,33.90
2018-05-06T04:44:42.760Z,36.33
2018-05-06T04:47:11.697Z,31.27
2018-05-06T04:49:40.637Z,40.10
2018-05-06T04:52:09.558Z,34.60
2018-05-06T04:54:38.477Z,47.10
2018-05-06T04:57:07.404Z,32.83
2018-05-06T04:59:36.337Z,32.20
2018-05-06T05:02:05.258Z,34.00
2018-05-06T05:04:34.180Z,36.37
2018-05-06T05:07:03.440Z,42.03
2018-05-06T05:09:32.389Z,38.00
2018-05-06T05:12:01.317Z,28.90
2018-05-06T05:14:30.253Z,47.27
2018-05-06T05:16:59.187Z,37.93
2018-05-06T05:19:28.111Z,41.67
2018-05-06T05:21:57.369Z,49.27
2018-05-06T05:24:26.340Z,41.83
2018-05-06T05:26:55.258Z,41.47
2018-05-06T05:29:24.178Z,35.40
2018-05-06T05:31:53.108Z,44.40
2018-05-06T05:34:22.055Z,43.23
2018-05-06T05:36:51.020Z,41.73
2018-05-06T05:39:19.957Z,44.80
2018-05-06T05:41:48.896Z,47.10
2018-05-06T05:44:17.825Z,34.87
2018-05-06T05:46:46.748Z,39.20
2018-05-06T05:49:15.661Z,45.20
2018-05-06T05:51:44.596Z,42.10
2018-05-06T05:54:13.540Z,49.50
2018-05-06T05:56:42.472Z,42.23
2018-05-06T05:59:11.444Z,43.30
2018-05-06T06:01:40.365Z,38.83
2018-05-06T06:04:09.317Z,47.40
2018-05-06T06:06:38.249Z,38.90
2018-05-06T06:09:07.312Z,43.63
2018-05-06T06:11:36.251Z,58.43
2018-05-06T06:14:05.169Z,40.40
2018-05-06T06:16:34.108Z,287.27
2018-05-06T06:19:03.043Z,58.57
2018-05-06T06:21:32.068Z,51.13
2018-05-06T06:24:01.060Z,104.17
2018-05-06T06:26:29.984Z,59.33
2018-05-06T06:28:58.909Z,140.97
2018-05-06T06:31:27.836Z,192.20
2018-05-06T06:33:56.795Z,72.63
2018-05-06T06:36:26.025Z,67.60
2018-05-06T06:38:54.946Z,53.70
2018-05-06T06:41:23.864Z,45.97
2018-05-06T06:43:52.799Z,80.13
2018-05-06T06:46:21.732Z,96.40
2018-05-06T06:48:50.674Z,843.83
2018-05-06T06:51:19.596Z,133.50
2018-05-06T06:53:48.528Z,447.07
2018-05-06T06:56:17.464Z,272.10
2018-05-06T06:58:46.400Z,82.40
2018-05-06T07:01:15.331Z,124.40
2018-05-06T07:03:44.261Z,119.67
2018-05-06T07:06:13.193Z,194.80
2018-05-06T07:08:42.120Z,55.40
2018-05-06T07:11:11.055Z,120.20
2018-05-06T07:13:39.980Z,119.07
2018-05-06T07:16:08.922Z,112.93
2018-05-06T07:18:37.856Z,57.50
2018-05-06T07:21:06.880Z,99.10
2018-05-06T07:23:35.860Z,89.23
2018-05-06T07:26:04.784Z,56.47
2018-05-06T07:28:33.728Z,57.93
2018-05-06T07:31:02.736Z,58.03
2018-05-06T07:33:31.667Z,84.80
2018-05-06T07:36:00.584Z,62.10
2018-05-06T07:38:29.513Z,102.03
2018-05-06T07:40:58.445Z,63.43
2018-05-06T07:43:27.398Z,552.03
2018-05-06T07:45:56.364Z,331.70
2018-05-06T07:48:25.673Z,379.17
2018-05-06T07:50:54.635Z,208.70
2018-05-06T07:53:23.554Z,62.97
2018-05-06T07:55:52.522Z,173.50
2018-05-06T07:58:21.447Z,85.03
2018-05-06T08:00:50.463Z,51.23
2018-05-06T08:03:19.384Z,56.40
2018-05-06T08:05:48.374Z,52.90
2018-05-06T08:08:17.326Z,53.77
2018-05-06T08:10:46.335Z,48.97
2018-05-06T08:13:15.237Z,59.03
2018-05-06T08:15:44.220Z,63.60
2018-05-06T08:18:13.140Z,55.97
2018-05-06T08:20:42.064Z,73.50
2018-05-06T08:23:11.053Z,58.93
2018-05-06T08:25:39.972Z,51.33
2018-05-06T08:28:08.906Z,64.37
2018-05-06T08:30:37.831Z,50.90
2018-05-06T08:33:06.764Z,64.53
2018-05-06T08:35:35.696Z,71.00
2018-05-06T08:38:04.624Z,59.20
2018-05-06T08:40:33.569Z,54.20
2018-05-06T08:43:02.593Z,64.27
2018-05-06T08:45:31.578Z,53.07
2018-05-06T08:48:00.509Z,84.20
2018-05-06T08:50:29.445Z,69.57
2018-05-06T08:52:58.589Z,52.63
2018-05-06T08:55:27.515Z,60.07
2018-05-06T08:57:56.520Z,56.83
2018-05-06T09:00:25.456Z,268.60
2018-05-06T09:02:54.733Z,66.13
2018-05-06T09:05:23.658Z,78.07
2018-05-06T09:07:52.590Z,72.03
2018-05-06T09:10:21.515Z,75.20
2018-05-06T09:12:50.448Z,59.00
2018-05-06T09:15:19.413Z,58.40
2018-05-06T09:17:48.405Z,64.10
2018-05-06T09:20:17.345Z,70.57
2018-05-06T09:22:46.279Z,50.53
2018-05-06T09:25:15.197Z,61.27
2018-05-06T09:27:44.125Z,62.73
2018-05-06T09:30:13.063Z,54.47
2018-05-06T09:32:41.993Z,54.97
2018-05-06T09:35:10.920Z,63.67
2018-05-06T09:37:39.889Z,73.93
2018-05-06T09:40:08.893Z,87.37
2018-05-06T09:42:37.820Z,77.10
2018-05-06T09:45:06.765Z,59.17
2018-05-06T09:47:35.706Z,54.23
2018-05-06T09:50:04.640Z,55.80
2018-05-06T09:52:33.584Z,787.80
2018-05-06T09:55:02.525Z,409.87
2018-05-06T09:57:31.454Z,712.17
2018-05-06T10:00:00.389Z,609.40
2018-05-06T10:02:29.333Z,118.00
2018-05-06T10:04:58.271Z,304.20
2018-05-06T10:07:27.208Z,66.73
2018-05-06T10:09:56.156Z,426.07
2018-05-06T10:12:25.105Z,88.60
2018-05-06T10:14:54.028Z,179.53
2018-05-06T10:17:22.984Z,109.97
2018-05-06T10:19:51.913Z,105.07
2018-05-06T10:22:21.031Z,110.27
2018-05-06T10:24:49.956Z,114.10
2018-05-06T10:27:18.881Z,67.47
2018-05-06T10:29:47.833Z,106.93
2018-05-06T10:32:16.784Z,115.73
2018-05-06T10:34:45.710Z,51.00
2018-05-06T10:37:14.650Z,74.80
2018-05-06T10:39:43.574Z,84.07
2018-05-06T10:42:12.502Z,61.90
2018-05-06T10:44:41.449Z,56.77
2018-05-06T10:47:10.505Z,88.43
2018-05-06T10:49:39.403Z,90.07
2018-05-06T10:52:08.340Z,48.53
2018-05-06T10:54:37.267Z,32.60
2018-05-06T10:57:06.212Z,52.63
2018-05-06T10:59:35.144Z,49.93
2018-05-06T11:02:04.068Z,39.03
2018-05-06T11:04:32.990Z,53.90
2018-05-06T11:07:01.936Z,44.83
2018-05-06T11:09:30.861Z,36.70
2018-05-06T11:11:59.784Z,35.57
2018-05-06T11:14:28.704Z,30.03
2018-05-06T11:16:57.616Z,30.97
2018-05-06T11:19:26.589Z,30.97
2018-05-06T11:21:55.631Z,36.70
2018-05-06T11:24:24.557Z,36.20
2018-05-06T11:26:53.518Z,37.53
2018-05-06T11:29:22.467Z,28.70
2018-05-06T11:31:51.456Z,23.43
2018-05-06T11:34:20.392Z,34.70
2018-05-06T11:36:49.316Z,36.83
2018-05-06T11:39:18.313Z,26.53
2018-05-06T11:41:47.260Z,36.23
2018-05-06T11:44:16.184Z,24.90
2018-05-06T11:46:45.114Z,23.37
2018-05-06T11:49:14.093Z,35.57
2018-05-06T11:51:43.025Z,26.40
2018-05-06T11:54:11.965Z,28.87
2018-05-06T11:56:40.901Z,27.87
2018-05-06T11:59:09.960Z,35.10
2018-05-06T12:01:38.881Z,37.83
2018-05-06T12:04:08.025Z,31.20
2018-05-06T12:06:37.041Z,39.33
2018-05-06T12:09:07.252Z,35.70
2018-05-06T12:11:36.256Z,24.03
2018-05-06T12:14:05.184Z,42.43
2018-05-06T12:16:34.137Z,44.60
2018-05-06T12:19:03.421Z,35.47
2018-05-06T12:21:32.366Z,30.80
2018-05-06T12:24:01.428Z,37.47
2018-05-06T12:26:30.381Z,41.80
2018-05-06T12:28:59.313Z,35.37
2018-05-06T12:31:28.244Z,36.50
2018-05-06T12:33:57.171Z,32.00
2018-05-06T12:36:26.093Z,31.80
2018-05-06T12:38:55.009Z,37.47
2018-05-06T12:41:23.931Z,39.83
2018-05-06T12:43:52.849Z,39.43
2018-05-06T12:46:21.826Z,38.83
2018-05-06T12:48:50.768Z,28.73
2018-05-06T12:51:19.705Z,29.87
2018-05-06T12:53:48.624Z,31.23
2018-05-06T12:56:17.565Z,26.53
2018-05-06T12:58:46.512Z,32.90
2018-05-06T13:03:42.416Z,24.90
2018-05-06T13:06:11.381Z,28.80
2018-05-06T13:08:40.308Z,28.73
2018-05-06T13:11:09.232Z,27.33
2018-05-06T13:13:38.173Z,24.77
2018-05-06T13:16:07.129Z,26.30
2018-05-06T13:18:36.059Z,34.27
2018-05-06T13:21:04.985Z,26.93
2018-05-06T13:23:33.914Z,31.60
2018-05-06T13:26:02.833Z,30.23
2018-05-06T13:28:31.756Z,31.63
2018-05-06T13:31:00.684Z,33.57
2018-05-06T13:33:29.613Z,24.37
2018-05-06T13:35:58.568Z,28.80
2018-05-06T13:38:27.499Z,23.93
2018-05-06T13:40:56.454Z,26.30
2018-05-06T13:43:25.649Z,23.23
2018-05-06T13:45:54.884Z,26.80
2018-05-06T13:48:23.804Z,31.00
2018-05-06T13:50:52.736Z,27.40
2018-05-06T13:53:21.677Z,27.93
2018-05-06T13:55:50.607Z,22.03
2018-05-06T13:58:19.537Z,30.43
2018-05-06T14:00:48.526Z,19.03
2018-05-06T14:03:17.451Z,26.10
2018-05-06T14:05:46.444Z,17.77
2018-05-06T14:08:15.371Z,22.03
2018-05-06T14:10:44.305Z,15.67
2018-05-06T14:13:13.238Z,26.07
2018-05-06T14:15:42.244Z,22.60
2018-05-06T14:18:11.126Z,20.60
2018-05-06T14:20:40.052Z,16.77
2018-05-06T14:23:08.986Z,24.33
2018-05-06T14:25:38.256Z,22.90
2018-05-06T14:28:07.280Z,19.33
2018-05-06T14:30:36.269Z,22.13
2018-05-06T14:33:05.203Z,18.27
2018-05-06T14:35:34.132Z,23.27
2018-05-06T14:38:03.053Z,17.03
2018-05-06T14:40:31.988Z,18.70
2018-05-06T14:43:00.909Z,16.70
2018-05-06T14:45:29.825Z,20.57
2018-05-06T14:48:04.799Z,14.43
2018-05-06T14:50:33.724Z,56.93
2018-05-06T14:53:02.660Z,27.63
2018-05-06T14:55:31.588Z,24.10
2018-05-06T14:58:00.553Z,23.40
2018-05-06T15:00:29.813Z,21.43
2018-05-06T15:02:58.734Z,22.70
2018-05-06T15:05:27.676Z,724.87
2018-05-06T15:07:56.620Z,583.47
2018-05-06T15:10:25.629Z,116.80
2018-05-06T15:12:54.512Z,187.67
2018-05-06T15:15:23.457Z,542.17
2018-05-06T15:17:52.384Z,597.40
2018-05-06T15:20:21.337Z,427.67
2018-05-06T15:22:50.273Z,302.80
2018-05-06T15:25:19.242Z,391.20
2018-05-06T15:27:48.237Z,250.53
2018-05-06T15:30:17.210Z,190.33
2018-05-06T15:32:46.137Z,192.77
2018-05-06T15:35:15.069Z,87.10
2018-05-06T15:37:44.000Z,84.70
2018-05-06T15:40:12.929Z,69.00
2018-05-06T15:42:41.869Z,55.77
2018-05-06T15:45:10.787Z,62.13
2018-05-06T15:47:39.704Z,618.03
2018-05-06T15:50:08.675Z,420.00
2018-05-06T15:52:37.622Z,463.87
2018-05-06T15:55:06.568Z,279.10
2018-05-06T15:57:35.532Z,178.53
2018-05-06T16:00:04.459Z,168.43
2018-05-06T16:02:48.289Z,91.40
2018-05-06T16:05:17.220Z,577.17
2018-05-06T16:07:46.188Z,498.47
2018-05-06T16:10:15.135Z,586.37
2018-05-06T16:12:44.104Z,535.57
2018-05-06T16:15:13.044Z,465.07
2018-05-06T16:17:42.044Z,366.67
2018-05-06T16:20:10.984Z,741.33
2018-05-06T16:22:39.947Z,723.33
2018-05-06T16:25:08.901Z,231.40
2018-05-06T16:27:37.832Z,490.10
2018-05-06T16:30:06.787Z,429.03
2018-05-06T16:32:36.046Z,361.43
2018-05-06T16:35:04.971Z,257.17
2018-05-06T16:37:33.921Z,231.33
2018-05-06T16:40:02.857Z,149.97
2018-05-06T16:42:31.775Z,29.67
2018-05-06T16:45:00.732Z,73.50
2018-05-06T16:47:29.672Z,33.53
2018-05-06T16:49:58.609Z,47.20
2018-05-06T16:52:27.536Z,24.60
2018-05-06T16:54:56.485Z,44.20
2018-05-06T16:57:25.450Z,28.60
2018-05-06T16:59:54.377Z,31.20
2018-05-06T17:02:23.296Z,34.73
2018-05-06T17:04:52.230Z,32.93
2018-05-06T17:07:21.161Z,371.57
2018-05-06T17:09:50.084Z,514.20
2018-05-06T17:12:19.008Z,511.93
2018-05-06T17:14:47.942Z,404.30
2018-05-06T17:17:16.872Z,312.70
2018-05-06T17:19:45.842Z,144.90
2018-05-06T17:22:14.769Z,87.80
2018-05-06T17:24:43.713Z,213.33
2018-05-06T17:27:12.712Z,125.57
2018-05-06T17:29:41.640Z,117.00
2018-05-06T17:32:10.664Z,66.60
2018-05-06T17:34:39.649Z,104.90
2018-05-06T17:37:08.612Z,88.80
2018-05-06T17:39:37.560Z,54.57
2018-05-06T17:42:06.633Z,70.10
2018-05-06T17:44:35.568Z,35.53
2018-05-06T17:47:04.493Z,71.13
2018-05-06T17:49:33.418Z,55.87
2018-05-06T17:52:02.341Z,56.97
2018-05-06T17:54:31.269Z,59.13
2018-05-06T17:57:00.192Z,53.13
2018-05-06T17:59:29.110Z,48.03
2018-05-06T18:01:58.088Z,30.60
2018-05-06T18:04:27.155Z,28.67
2018-05-06T18:06:56.103Z,34.07
2018-05-06T18:09:25.220Z,48.70
2018-05-06T18:11:54.137Z,30.47
2018-05-06T18:14:23.092Z,40.47
2018-05-06T18:16:52.053Z,46.43
2018-05-06T18:19:20.991Z,37.07
2018-05-06T18:21:49.921Z,47.00
2018-05-06T18:24:18.867Z,39.23
2018-05-06T18:26:47.787Z,50.00
2018-05-06T18:29:16.813Z,34.33
2018-05-06T18:31:45.772Z,34.77
2018-05-06T18:34:14.708Z,32.00
2018-05-06T18:36:43.677Z,41.93
2018-05-06T18:39:12.598Z,40.40
2018-05-06T18:41:41.535Z,32.40
2018-05-06T18:44:10.493Z,38.93
2018-05-06T18:46:39.421Z,36.73
2018-05-06T18:49:08.343Z,35.60
2018-05-06T18:51:37.342Z,34.70
2018-05-06T18:54:06.335Z,27.67
2018-05-06T18:56:35.588Z,27.53
2018-05-06T18:59:04.600Z,36.13
2018-05-06T19:01:33.526Z,41.20
2018-05-06T19:04:02.469Z,37.20
2018-05-06T19:06:31.393Z,37.10
2018-05-06T19:09:00.311Z,35.90
2018-05-06T19:11:29.252Z,38.77
2018-05-06T19:13:58.190Z,30.10
2018-05-06T19:16:27.123Z,32.03
2018-05-06T19:18:56.053Z,24.63
2018-05-06T19:21:24.989Z,36.50
2018-05-06T19:23:53.916Z,38.00
2018-05-06T19:26:22.998Z,32.03
2018-05-06T19:28:51.939Z,41.00
2018-05-06T19:31:20.881Z,29.03
2018-05-06T19:33:50.625Z,27.37
2018-05-06T19:36:19.608Z,20.03
2018-05-06T19:38:48.701Z,24.20
2018-05-06T19:41:19.034Z,22.20
2018-05-06T19:43:48.096Z,33.50
2018-05-06T19:46:17.105Z,42.50
2018-05-06T19:48:46.120Z,25.93
2018-05-06T19:51:15.488Z,26.63
2018-05-06T19:53:44.438Z,32.10
2018-05-06T19:56:13.372Z,21.53
2018-05-06T19:58:42.344Z,29.47
2018-05-06T20:01:11.291Z,25.73
2018-05-06T20:03:40.235Z,20.63
2018-05-06T20:06:09.176Z,38.40
2018-05-06T20:08:38.180Z,597.90
2018-05-06T20:11:07.142Z,42.80
2018-05-06T20:13:36.093Z,114.67
2018-05-06T20:16:05.073Z,29.40
2018-05-06T20:18:34.020Z,28.80
2018-05-06T20:21:03.297Z,50.53
2018-05-06T20:23:32.337Z,49.20
2018-05-06T20:26:01.311Z,55.87
2018-05-06T20:28:31.213Z,47.33
2018-05-06T20:31:00.166Z,39.37
2018-05-06T20:33:29.101Z,56.83
2018-05-06T20:35:58.196Z,185.70
2018-05-06T20:38:27.226Z,30.33
2018-05-06T20:40:56.182Z,22.43
2018-05-06T20:43:25.120Z,30.60
2018-05-06T20:45:54.085Z,94.63
2018-05-06T20:48:23.188Z,186.97
2018-05-06T20:50:52.139Z,35.07
2018-05-06T20:53:21.070Z,68.73
2018-05-06T20:55:50.197Z,35.30
2018-05-06T20:58:19.406Z,28.67
2018-05-06T21:00:48.352Z,34.03
2018-05-06T21:03:17.313Z,25.97
2018-05-06T21:05:46.262Z,55.17
2018-05-06T21:08:15.196Z,30.17
2018-05-06T21:10:44.123Z,40.77
2018-05-06T21:13:13.052Z,25.00
2018-05-06T21:15:41.997Z,35.20
2018-05-06T21:18:10.948Z,22.30
2018-05-06T21:20:39.882Z,21.87
2018-05-06T21:23:09.131Z,191.37
2018-05-06T21:25:38.068Z,42.87
2018-05-06T21:28:07.069Z,103.03
2018-05-06T21:30:36.084Z,40.70
2018-05-06T21:33:05.025Z,23.77
2018-05-06T21:35:33.946Z,161.97
2018-05-06T21:38:02.879Z,49.50
2018-05-06T21:40:31.809Z,28.47
2018-05-06T21:43:00.736Z,22.60
2018-05-06T21:45:29.676Z,24.10
2018-05-06T21:47:58.633Z,29.77
2018-05-06T21:50:27.592Z,27.93
2018-05-06T21:52:56.598Z,57.33
2018-05-06T21:55:25.468Z,33.83
2018-05-06T21:57:54.394Z,30.60
2018-05-06T22:00:23.320Z,31.00
2018-05-06T22:02:52.312Z,30.57
2018-05-06T22:05:21.232Z,23.43
2018-05-06T22:07:50.265Z,27.93
2018-05-06T22:10:19.219Z,21.20
2018-05-06T22:12:48.148Z,23.27
2018-05-06T22:15:17.093Z,36.33
2018-05-06T22:17:46.309Z,22.10
2018-05-06T22:20:15.260Z,24.63
2018-05-06T22:22:44.188Z,31.60
2018-05-06T22:25:13.125Z,19.77
2018-05-06T22:27:42.053Z,25.37
2018-05-06T22:30:10.976Z,27.10
2018-05-06T22:32:39.901Z,24.43
2018-05-06T22:35:08.833Z,28.80
2018-05-06T22:37:37.805Z,29.70
2018-05-06T22:40:06.725Z,27.50
2018-05-06T22:42:35.650Z,27.20
2018-05-06T22:45:04.582Z,28.37
2018-05-06T22:47:33.500Z,28.67
2018-05-06T22:50:02.563Z,21.80
2018-05-06T22:52:31.497Z,23.43
2018-05-06T22:55:00.417Z,23.20
2018-05-06T22:57:29.353Z,24.83
2018-05-06T22:59:58.280Z,25.20
2018-05-06T23:02:27.211Z,29.47
2018-05-06T23:04:56.152Z,28.43
2018-05-06T23:07:25.077Z,33.93
2018-05-06T23:09:53.993Z,33.40
2018-05-06T23:12:22.936Z,24.57
2018-05-06T23:14:51.881Z,32.37
2018-05-06T23:17:20.860Z,31.70
2018-05-06T23:19:49.784Z,34.60
2018-05-06T23:22:18.804Z,31.23
2018-05-06T23:24:47.676Z,33.13
2018-05-06T23:27:16.592Z,24.83
2018-05-06T23:29:45.536Z,22.03
2018-05-06T23:32:14.489Z,21.73
2018-05-06T23:34:43.408Z,24.13
2018-05-06T23:37:12.373Z,26.63
2018-05-06T23:39:41.320Z,26.27
2018-05-06T23:42:10.252Z,26.17
2018-05-06T23:44:39.176Z,24.87
2018-05-06T23:47:08.124Z,25.57
2018-05-06T23:49:37.056Z,25.50
2018-05-06T23:52:06.036Z,24.97
2018-05-06T23:54:34.940Z,25.53
2018-05-06T23:57:03.864Z,22.00
2018-05-06T23:59:32.828Z,23.07
